sensor_id;sensor_type;location;lat;lon;timestamp;P1;durP1;ratioP1;P2;durP2;ratioP2
45905;SDS011;31619;49.008;12.106;2022-12-18T00:01:32;47.37;;;24.67;;
45905;SDS011;31619;49.008;12.106;2022-12-18T00:04:00;43.37;;;24.00;;
45905;SDS011;31619;49.008;12.106;2022-12-18T00:06:31;40.77;;;23.90;;
45905;SDS011;31619;49.008;12.106;2022-12-18T00:08:57;50.53;;;25.90;;
45905;SDS011;31619;49.008;12.106;2022-12-18T00:11:25;47.23;;;24.50;;
45905;SDS011;31619;49.008;12.106;2022-12-18T00:13:53;46.03;;;24.27;;
45905;SDS011;31619;49.008;12.106;2022-12-18T00:16:21;45.30;;;24.50;;
45905;SDS011;31619;49.008;12.106;2022-12-18T00:18:48;39.53;;;22.90;;
45905;SDS011;31619;49.008;12.106;2022-12-18T00:21:15;41.30;;;22.57;;
45905;SDS011;31619;49.008;12.106;2022-12-18T00:23:42;42.23;;;23.63;;
45905;SDS011;31619;49.008;12.106;2022-12-18T00:26:12;44.17;;;23.17;;
45905;SDS011;31619;49.008;12.106;2022-12-18T00:28:43;43.33;;;22.67;;
45905;SDS011;31619;49.008;12.106;2022-12-18T00:31:10;40.63;;;21.67;;
45905;SDS011;31619;49.008;12.106;2022-12-18T00:33:38;40.00;;;22.13;;
45905;SDS011;31619;49.008;12.106;2022-12-18T00:36:08;39.97;;;21.10;;
45905;SDS011;31619;49.008;12.106;2022-12-18T00:38:38;36.63;;;21.43;;
45905;SDS011;31619;49.008;12.106;2022-12-18T00:41:05;41.57;;;24.07;;
45905;SDS011;31619;49.008;12.106;2022-12-18T00:43:31;39.40;;;22.17;;
45905;SDS011;31619;49.008;12.106;2022-12-18T00:46:00;37.03;;;23.07;;
45905;SDS011;31619;49.008;12.106;2022-12-18T00:48:26;43.60;;;22.57;;
45905;SDS011;31619;49.008;12.106;2022-12-18T00:50:51;37.63;;;21.40;;
45905;SDS011;31619;49.008;12.106;2022-12-18T00:53:17;40.27;;;22.43;;
45905;SDS011;31619;49.008;12.106;2022-12-18T00:55:43;45.77;;;22.90;;
45905;SDS011;31619;49.008;12.106;2022-12-18T00:58:09;41.90;;;22.20;;
45905;SDS011;31619;49.008;12.106;2022-12-18T01:00:35;35.87;;;22.07;;
45905;SDS011;31619;49.008;12.106;2022-12-18T01:03:01;41.30;;;21.83;;
45905;SDS011;31619;49.008;12.106;2022-12-18T01:05:27;44.93;;;21.90;;
45905;SDS011;31619;49.008;12.106;2022-12-18T01:07:53;43.73;;;22.53;;
45905;SDS011;31619;49.008;12.106;2022-12-18T01:10:18;39.20;;;20.80;;
45905;SDS011;31619;49.008;12.106;2022-12-18T01:12:44;33.27;;;20.90;;
45905;SDS011;31619;49.008;12.106;2022-12-18T01:15:11;36.93;;;21.03;;
45905;SDS011;31619;49.008;12.106;2022-12-18T01:17:38;35.83;;;21.53;;
45905;SDS011;31619;49.008;12.106;2022-12-18T01:20:04;37.90;;;20.63;;
45905;SDS011;31619;49.008;12.106;2022-12-18T01:22:30;32.97;;;19.70;;
45905;SDS011;31619;49.008;12.106;2022-12-18T01:24:59;38.33;;;21.30;;
45905;SDS011;31619;49.008;12.106;2022-12-18T01:27:24;37.63;;;21.00;;
45905;SDS011;31619;49.008;12.106;2022-12-18T01:29:50;39.43;;;22.87;;
45905;SDS011;31619;49.008;12.106;2022-12-18T01:32:16;37.43;;;21.13;;
45905;SDS011;31619;49.008;12.106;2022-12-18T01:34:41;33.63;;;19.63;;
45905;SDS011;31619;49.008;12.106;2022-12-18T01:37:07;37.60;;;21.67;;
45905;SDS011;31619;49.008;12.106;2022-12-18T01:39:32;37.27;;;21.83;;
45905;SDS011;31619;49.008;12.106;2022-12-18T01:41:59;41.73;;;22.20;;
45905;SDS011;31619;49.008;12.106;2022-12-18T01:47:24;38.60;;;21.67;;
45905;SDS011;31619;49.008;12.106;2022-12-18T01:50:24;47.27;;;22.63;;
45905;SDS011;31619;49.008;12.106;2022-12-18T01:55:25;37.93;;;22.13;;
45905;SDS011;31619;49.008;12.106;2022-12-18T01:57:55;42.87;;;23.97;;
45905;SDS011;31619;49.008;12.106;2022-12-18T02:00:23;40.30;;;23.67;;
45905;SDS011;31619;49.008;12.106;2022-12-18T02:02:49;39.10;;;22.70;;
45905;SDS011;31619;49.008;12.106;2022-12-18T02:05:16;40.13;;;23.07;;
45905;SDS011;31619;49.008;12.106;2022-12-18T02:18:57;48.90;;;24.47;;
45905;SDS011;31619;49.008;12.106;2022-12-18T02:21:34;40.87;;;23.20;;
45905;SDS011;31619;49.008;12.106;2022-12-18T02:26:50;39.37;;;21.63;;
45905;SDS011;31619;49.008;12.106;2022-12-18T02:29:31;40.83;;;22.13;;
45905;SDS011;31619;49.008;12.106;2022-12-18T02:32:02;40.67;;;21.40;;
45905;SDS011;31619;49.008;12.106;2022-12-18T02:34:34;42.03;;;22.93;;
45905;SDS011;31619;49.008;12.106;2022-12-18T02:37:04;36.93;;;21.40;;
45905;SDS011;31619;49.008;12.106;2022-12-18T02:39:34;39.63;;;23.63;;
45905;SDS011;31619;49.008;12.106;2022-12-18T02:42:01;36.73;;;22.13;;
45905;SDS011;31619;49.008;12.106;2022-12-18T02:44:32;33.60;;;19.87;;
45905;SDS011;31619;49.008;12.106;2022-12-18T02:46:59;33.70;;;19.23;;
45905;SDS011;31619;49.008;12.106;2022-12-18T02:49:36;30.37;;;17.97;;
45905;SDS011;31619;49.008;12.106;2022-12-18T02:58:13;27.50;;;17.43;;
45905;SDS011;31619;49.008;12.106;2022-12-18T03:00:45;25.63;;;16.23;;
45905;SDS011;31619;49.008;12.106;2022-12-18T03:03:30;27.97;;;17.40;;
45905;SDS011;31619;49.008;12.106;2022-12-18T03:06:24;29.10;;;16.27;;
45905;SDS011;31619;49.008;12.106;2022-12-18T03:08:56;28.83;;;17.60;;
45905;SDS011;31619;49.008;12.106;2022-12-18T03:11:32;27.53;;;16.43;;
45905;SDS011;31619;49.008;12.106;2022-12-18T03:14:20;32.63;;;17.83;;
45905;SDS011;31619;49.008;12.106;2022-12-18T03:16:48;36.63;;;20.17;;
45905;SDS011;31619;49.008;12.106;2022-12-18T03:19:16;29.03;;;17.87;;
45905;SDS011;31619;49.008;12.106;2022-12-18T03:21:47;35.63;;;17.40;;
45905;SDS011;31619;49.008;12.106;2022-12-18T03:24:17;28.47;;;17.03;;
45905;SDS011;31619;49.008;12.106;2022-12-18T03:26:46;29.43;;;17.90;;
45905;SDS011;31619;49.008;12.106;2022-12-18T03:29:18;31.23;;;17.47;;
45905;SDS011;31619;49.008;12.106;2022-12-18T03:32:05;28.57;;;18.33;;
45905;SDS011;31619;49.008;12.106;2022-12-18T03:34:35;32.03;;;18.20;;
45905;SDS011;31619;49.008;12.106;2022-12-18T03:37:05;31.40;;;19.30;;
45905;SDS011;31619;49.008;12.106;2022-12-18T03:39:31;31.23;;;18.37;;
45905;SDS011;31619;49.008;12.106;2022-12-18T03:42:05;31.20;;;19.30;;
45905;SDS011;31619;49.008;12.106;2022-12-18T03:47:19;28.93;;;17.03;;
45905;SDS011;31619;49.008;12.106;2022-12-18T03:49:58;31.53;;;19.20;;
45905;SDS011;31619;49.008;12.106;2022-12-18T03:55:10;33.50;;;19.37;;
45905;SDS011;31619;49.008;12.106;2022-12-18T03:57:36;33.53;;;19.30;;
45905;SDS011;31619;49.008;12.106;2022-12-18T04:00:08;26.87;;;17.57;;
45905;SDS011;31619;49.008;12.106;2022-12-18T04:02:37;25.03;;;16.70;;
45905;SDS011;31619;49.008;12.106;2022-12-18T04:05:05;30.63;;;18.37;;
45905;SDS011;31619;49.008;12.106;2022-12-18T04:07:33;25.50;;;17.27;;
45905;SDS011;31619;49.008;12.106;2022-12-18T04:09:59;30.73;;;18.37;;
45905;SDS011;31619;49.008;12.106;2022-12-18T04:12:28;29.20;;;19.10;;
45905;SDS011;31619;49.008;12.106;2022-12-18T04:14:55;24.87;;;16.40;;
45905;SDS011;31619;49.008;12.106;2022-12-18T04:17:21;28.57;;;18.70;;
45905;SDS011;31619;49.008;12.106;2022-12-18T04:19:47;31.50;;;18.07;;
45905;SDS011;31619;49.008;12.106;2022-12-18T04:22:13;30.10;;;18.43;;
45905;SDS011;31619;49.008;12.106;2022-12-18T04:24:38;31.03;;;17.37;;
45905;SDS011;31619;49.008;12.106;2022-12-18T04:27:04;28.40;;;17.50;;
45905;SDS011;31619;49.008;12.106;2022-12-18T04:29:30;28.27;;;16.73;;
45905;SDS011;31619;49.008;12.106;2022-12-18T04:31:55;29.60;;;16.63;;
45905;SDS011;31619;49.008;12.106;2022-12-18T04:34:21;28.43;;;18.60;;
45905;SDS011;31619;49.008;12.106;2022-12-18T04:36:47;24.23;;;15.80;;
45905;SDS011;31619;49.008;12.106;2022-12-18T04:39:13;28.40;;;17.43;;
45905;SDS011;31619;49.008;12.106;2022-12-18T04:41:39;27.43;;;17.57;;
45905;SDS011;31619;49.008;12.106;2022-12-18T04:44:04;31.87;;;17.87;;
45905;SDS011;31619;49.008;12.106;2022-12-18T04:46:30;25.47;;;17.13;;
45905;SDS011;31619;49.008;12.106;2022-12-18T04:48:55;29.47;;;16.50;;
45905;SDS011;31619;49.008;12.106;2022-12-18T04:51:21;25.13;;;15.67;;
45905;SDS011;31619;49.008;12.106;2022-12-18T04:53:47;29.70;;;18.23;;
45905;SDS011;31619;49.008;12.106;2022-12-18T04:56:13;27.97;;;16.10;;
45905;SDS011;31619;49.008;12.106;2022-12-18T04:58:41;24.80;;;15.63;;
45905;SDS011;31619;49.008;12.106;2022-12-18T05:01:08;26.13;;;16.20;;
45905;SDS011;31619;49.008;12.106;2022-12-18T05:03:34;29.07;;;15.87;;
45905;SDS011;31619;49.008;12.106;2022-12-18T05:06:01;27.70;;;16.50;;
45905;SDS011;31619;49.008;12.106;2022-12-18T05:08:27;25.23;;;15.87;;
45905;SDS011;31619;49.008;12.106;2022-12-18T05:13:26;28.93;;;17.23;;
45905;SDS011;31619;49.008;12.106;2022-12-18T05:15:52;27.93;;;15.67;;
45905;SDS011;31619;49.008;12.106;2022-12-18T05:18:19;27.47;;;15.57;;
45905;SDS011;31619;49.008;12.106;2022-12-18T05:20:44;28.83;;;15.83;;
45905;SDS011;31619;49.008;12.106;2022-12-18T05:23:10;26.80;;;17.30;;
45905;SDS011;31619;49.008;12.106;2022-12-18T05:25:35;26.90;;;15.50;;
45905;SDS011;31619;49.008;12.106;2022-12-18T05:28:01;25.93;;;15.10;;
45905;SDS011;31619;49.008;12.106;2022-12-18T05:30:26;24.17;;;15.43;;
45905;SDS011;31619;49.008;12.106;2022-12-18T05:32:52;28.47;;;17.47;;
45905;SDS011;31619;49.008;12.106;2022-12-18T05:35:18;29.53;;;16.90;;
45905;SDS011;31619;49.008;12.106;2022-12-18T05:37:44;33.90;;;18.23;;
45905;SDS011;31619;49.008;12.106;2022-12-18T05:40:10;24.33;;;15.33;;
45905;SDS011;31619;49.008;12.106;2022-12-18T05:42:36;28.40;;;17.50;;
45905;SDS011;31619;49.008;12.106;2022-12-18T05:45:02;23.23;;;14.47;;
45905;SDS011;31619;49.008;12.106;2022-12-18T05:47:28;27.37;;;17.10;;
45905;SDS011;31619;49.008;12.106;2022-12-18T05:49:54;27.23;;;15.83;;
45905;SDS011;31619;49.008;12.106;2022-12-18T05:52:20;26.10;;;15.77;;
45905;SDS011;31619;49.008;12.106;2022-12-18T05:54:45;30.63;;;16.70;;
45905;SDS011;31619;49.008;12.106;2022-12-18T05:57:11;28.93;;;17.47;;
45905;SDS011;31619;49.008;12.106;2022-12-18T05:59:36;28.20;;;15.93;;
45905;SDS011;31619;49.008;12.106;2022-12-18T06:02:02;30.83;;;17.83;;
45905;SDS011;31619;49.008;12.106;2022-12-18T06:04:31;30.57;;;18.23;;
45905;SDS011;31619;49.008;12.106;2022-12-18T06:06:56;30.00;;;16.23;;
45905;SDS011;31619;49.008;12.106;2022-12-18T06:09:22;30.13;;;16.40;;
45905;SDS011;31619;49.008;12.106;2022-12-18T06:11:48;35.57;;;18.23;;
45905;SDS011;31619;49.008;12.106;2022-12-18T06:14:15;31.60;;;16.97;;
45905;SDS011;31619;49.008;12.106;2022-12-18T06:16:42;28.80;;;16.67;;
45905;SDS011;31619;49.008;12.106;2022-12-18T06:19:13;26.97;;;16.70;;
45905;SDS011;31619;49.008;12.106;2022-12-18T06:21:41;28.47;;;16.93;;
45905;SDS011;31619;49.008;12.106;2022-12-18T06:24:06;26.27;;;15.90;;
45905;SDS011;31619;49.008;12.106;2022-12-18T06:26:32;31.17;;;17.70;;
45905;SDS011;31619;49.008;12.106;2022-12-18T06:28:58;28.87;;;17.53;;
45905;SDS011;31619;49.008;12.106;2022-12-18T06:31:24;27.63;;;16.87;;
45905;SDS011;31619;49.008;12.106;2022-12-18T06:33:50;33.90;;;17.00;;
45905;SDS011;31619;49.008;12.106;2022-12-18T06:36:16;31.77;;;17.70;;
45905;SDS011;31619;49.008;12.106;2022-12-18T06:38:42;31.13;;;16.90;;
45905;SDS011;31619;49.008;12.106;2022-12-18T06:41:16;30.37;;;16.17;;
45905;SDS011;31619;49.008;12.106;2022-12-18T06:43:43;31.53;;;18.60;;
45905;SDS011;31619;49.008;12.106;2022-12-18T06:46:09;34.53;;;18.33;;
45905;SDS011;31619;49.008;12.106;2022-12-18T06:48:35;33.70;;;19.23;;
45905;SDS011;31619;49.008;12.106;2022-12-18T06:51:01;29.13;;;16.47;;
45905;SDS011;31619;49.008;12.106;2022-12-18T06:53:27;30.40;;;18.03;;
45905;SDS011;31619;49.008;12.106;2022-12-18T06:55:59;30.70;;;17.20;;
45905;SDS011;31619;49.008;12.106;2022-12-18T06:58:28;30.40;;;16.73;;
45905;SDS011;31619;49.008;12.106;2022-12-18T07:00:59;33.43;;;18.37;;
45905;SDS011;31619;49.008;12.106;2022-12-18T07:03:26;38.30;;;19.57;;
45905;SDS011;31619;49.008;12.106;2022-12-18T07:05:51;33.50;;;18.67;;
45905;SDS011;31619;49.008;12.106;2022-12-18T07:08:17;32.87;;;17.67;;
45905;SDS011;31619;49.008;12.106;2022-12-18T07:10:43;35.27;;;17.67;;
45905;SDS011;31619;49.008;12.106;2022-12-18T07:13:09;34.60;;;18.83;;
45905;SDS011;31619;49.008;12.106;2022-12-18T07:15:34;33.47;;;17.90;;
45905;SDS011;31619;49.008;12.106;2022-12-18T07:18:00;34.30;;;18.37;;
45905;SDS011;31619;49.008;12.106;2022-12-18T07:20:26;34.77;;;18.93;;
45905;SDS011;31619;49.008;12.106;2022-12-18T07:22:51;31.17;;;17.77;;
45905;SDS011;31619;49.008;12.106;2022-12-18T07:25:17;36.93;;;18.13;;
45905;SDS011;31619;49.008;12.106;2022-12-18T07:27:42;37.73;;;19.53;;
45905;SDS011;31619;49.008;12.106;2022-12-18T07:30:08;33.13;;;18.03;;
45905;SDS011;31619;49.008;12.106;2022-12-18T07:32:34;33.80;;;18.00;;
45905;SDS011;31619;49.008;12.106;2022-12-18T07:35:00;33.23;;;17.67;;
45905;SDS011;31619;49.008;12.106;2022-12-18T07:37:25;32.47;;;18.57;;
45905;SDS011;31619;49.008;12.106;2022-12-18T07:39:51;35.90;;;18.80;;
45905;SDS011;31619;49.008;12.106;2022-12-18T07:42:16;31.17;;;16.93;;
45905;SDS011;31619;49.008;12.106;2022-12-18T07:44:57;37.77;;;18.50;;
45905;SDS011;31619;49.008;12.106;2022-12-18T07:47:24;36.23;;;19.07;;
45905;SDS011;31619;49.008;12.106;2022-12-18T07:49:49;32.87;;;19.47;;
45905;SDS011;31619;49.008;12.106;2022-12-18T07:52:15;37.37;;;18.33;;
45905;SDS011;31619;49.008;12.106;2022-12-18T07:54:41;30.43;;;17.83;;
45905;SDS011;31619;49.008;12.106;2022-12-18T07:57:07;32.67;;;18.00;;
45905;SDS011;31619;49.008;12.106;2022-12-18T07:59:33;41.70;;;20.13;;
45905;SDS011;31619;49.008;12.106;2022-12-18T08:01:58;34.03;;;18.90;;
45905;SDS011;31619;49.008;12.106;2022-12-18T08:04:25;41.37;;;19.57;;
45905;SDS011;31619;49.008;12.106;2022-12-18T08:06:51;41.10;;;20.27;;
45905;SDS011;31619;49.008;12.106;2022-12-18T08:09:16;35.23;;;19.17;;
45905;SDS011;31619;49.008;12.106;2022-12-18T08:11:42;31.50;;;17.67;;
45905;SDS011;31619;49.008;12.106;2022-12-18T08:14:09;34.10;;;17.57;;
45905;SDS011;31619;49.008;12.106;2022-12-18T08:16:35;40.97;;;20.93;;
45905;SDS011;31619;49.008;12.106;2022-12-18T08:19:01;33.87;;;18.27;;
45905;SDS011;31619;49.008;12.106;2022-12-18T08:21:28;32.80;;;19.00;;
45905;SDS011;31619;49.008;12.106;2022-12-18T08:23:56;29.00;;;16.30;;
45905;SDS011;31619;49.008;12.106;2022-12-18T08:26:24;29.67;;;16.83;;
45905;SDS011;31619;49.008;12.106;2022-12-18T08:28:52;28.47;;;16.13;;
45905;SDS011;31619;49.008;12.106;2022-12-18T08:31:19;25.60;;;15.90;;
45905;SDS011;31619;49.008;12.106;2022-12-18T08:33:45;28.13;;;16.27;;
45905;SDS011;31619;49.008;12.106;2022-12-18T08:36:12;25.23;;;14.40;;
45905;SDS011;31619;49.008;12.106;2022-12-18T08:38:38;26.60;;;16.23;;
45905;SDS011;31619;49.008;12.106;2022-12-18T08:41:05;26.23;;;15.53;;
45905;SDS011;31619;49.008;12.106;2022-12-18T08:43:31;24.47;;;13.93;;
45905;SDS011;31619;49.008;12.106;2022-12-18T08:46:16;21.90;;;14.40;;
45905;SDS011;31619;49.008;12.106;2022-12-18T08:48:43;26.40;;;14.97;;
45905;SDS011;31619;49.008;12.106;2022-12-18T08:51:09;25.57;;;14.10;;
45905;SDS011;31619;49.008;12.106;2022-12-18T08:53:35;23.13;;;14.77;;
45905;SDS011;31619;49.008;12.106;2022-12-18T08:56:01;22.83;;;13.77;;
45905;SDS011;31619;49.008;12.106;2022-12-18T08:58:27;23.67;;;14.07;;
45905;SDS011;31619;49.008;12.106;2022-12-18T09:00:53;28.30;;;15.97;;
45905;SDS011;31619;49.008;12.106;2022-12-18T09:03:19;26.53;;;16.23;;
45905;SDS011;31619;49.008;12.106;2022-12-18T09:05:47;23.77;;;15.07;;
45905;SDS011;31619;49.008;12.106;2022-12-18T09:08:13;23.63;;;13.93;;
45905;SDS011;31619;49.008;12.106;2022-12-18T09:10:45;30.40;;;15.87;;
45905;SDS011;31619;49.008;12.106;2022-12-18T09:13:12;26.27;;;16.33;;
45905;SDS011;31619;49.008;12.106;2022-12-18T09:15:45;27.20;;;15.57;;
45905;SDS011;31619;49.008;12.106;2022-12-18T09:18:13;25.17;;;15.43;;
45905;SDS011;31619;49.008;12.106;2022-12-18T09:20:39;23.97;;;14.87;;
45905;SDS011;31619;49.008;12.106;2022-12-18T09:23:05;26.03;;;15.83;;
45905;SDS011;31619;49.008;12.106;2022-12-18T09:25:32;23.13;;;14.53;;
45905;SDS011;31619;49.008;12.106;2022-12-18T09:28:00;27.17;;;15.77;;
45905;SDS011;31619;49.008;12.106;2022-12-18T09:30:38;26.57;;;14.40;;
45905;SDS011;31619;49.008;12.106;2022-12-18T09:33:04;23.17;;;13.60;;
45905;SDS011;31619;49.008;12.106;2022-12-18T09:35:30;24.77;;;15.23;;
45905;SDS011;31619;49.008;12.106;2022-12-18T09:37:55;23.17;;;14.13;;
45905;SDS011;31619;49.008;12.106;2022-12-18T09:40:22;25.73;;;15.80;;
45905;SDS011;31619;49.008;12.106;2022-12-18T09:42:52;22.80;;;14.53;;
45905;SDS011;31619;49.008;12.106;2022-12-18T09:45:22;21.87;;;13.83;;
45905;SDS011;31619;49.008;12.106;2022-12-18T09:47:49;22.40;;;13.87;;
45905;SDS011;31619;49.008;12.106;2022-12-18T09:50:29;23.97;;;14.37;;
45905;SDS011;31619;49.008;12.106;2022-12-18T09:52:59;29.67;;;16.87;;
45905;SDS011;31619;49.008;12.106;2022-12-18T09:55:42;29.93;;;17.23;;
45905;SDS011;31619;49.008;12.106;2022-12-18T10:00:50;28.83;;;17.50;;
45905;SDS011;31619;49.008;12.106;2022-12-18T10:03:17;30.73;;;17.30;;
45905;SDS011;31619;49.008;12.106;2022-12-18T10:05:49;32.63;;;19.30;;
45905;SDS011;31619;49.008;12.106;2022-12-18T10:11:32;30.57;;;17.67;;
45905;SDS011;31619;49.008;12.106;2022-12-18T10:16:51;28.63;;;16.10;;
45905;SDS011;31619;49.008;12.106;2022-12-18T10:19:50;29.70;;;16.57;;
45905;SDS011;31619;49.008;12.106;2022-12-18T10:27:52;26.47;;;15.77;;
45905;SDS011;31619;49.008;12.106;2022-12-18T10:30:21;26.50;;;15.13;;
45905;SDS011;31619;49.008;12.106;2022-12-18T10:32:49;23.27;;;15.37;;
45905;SDS011;31619;49.008;12.106;2022-12-18T10:35:17;23.70;;;14.93;;
45905;SDS011;31619;49.008;12.106;2022-12-18T10:40:51;23.30;;;15.93;;
45905;SDS011;31619;49.008;12.106;2022-12-18T10:51:23;22.90;;;14.43;;
45905;SDS011;31619;49.008;12.106;2022-12-18T10:54:32;26.23;;;15.03;;
45905;SDS011;31619;49.008;12.106;2022-12-18T10:56:43;26.67;;;15.13;;
45905;SDS011;31619;49.008;12.106;2022-12-18T10:59:09;26.70;;;16.70;;
45905;SDS011;31619;49.008;12.106;2022-12-18T11:01:47;29.57;;;17.73;;
45905;SDS011;31619;49.008;12.106;2022-12-18T11:04:22;29.50;;;18.60;;
45905;SDS011;31619;49.008;12.106;2022-12-18T11:06:56;26.90;;;17.30;;
45905;SDS011;31619;49.008;12.106;2022-12-18T11:09:30;27.50;;;16.77;;
45905;SDS011;31619;49.008;12.106;2022-12-18T11:12:30;28.17;;;17.03;;
45905;SDS011;31619;49.008;12.106;2022-12-18T11:14:52;30.13;;;17.23;;
45905;SDS011;31619;49.008;12.106;2022-12-18T11:17:30;26.13;;;16.57;;
45905;SDS011;31619;49.008;12.106;2022-12-18T11:20:00;25.77;;;16.50;;
45905;SDS011;31619;49.008;12.106;2022-12-18T11:22:31;30.17;;;18.03;;
45905;SDS011;31619;49.008;12.106;2022-12-18T11:24:59;25.93;;;16.13;;
45905;SDS011;31619;49.008;12.106;2022-12-18T11:27:50;28.37;;;16.87;;
45905;SDS011;31619;49.008;12.106;2022-12-18T11:32:45;26.03;;;16.03;;
45905;SDS011;31619;49.008;12.106;2022-12-18T11:38:20;26.70;;;16.37;;
45905;SDS011;31619;49.008;12.106;2022-12-18T11:41:15;27.63;;;16.43;;
45905;SDS011;31619;49.008;12.106;2022-12-18T11:44:31;30.33;;;14.87;;
45905;SDS011;31619;49.008;12.106;2022-12-18T11:47:13;28.30;;;17.00;;
45905;SDS011;31619;49.008;12.106;2022-12-18T11:49:50;25.80;;;17.03;;
45905;SDS011;31619;49.008;12.106;2022-12-18T11:52:24;23.27;;;15.60;;
45905;SDS011;31619;49.008;12.106;2022-12-18T11:54:59;25.43;;;15.67;;
45905;SDS011;31619;49.008;12.106;2022-12-18T11:57:38;24.67;;;15.60;;
45905;SDS011;31619;49.008;12.106;2022-12-18T12:00:20;23.97;;;15.73;;
45905;SDS011;31619;49.008;12.106;2022-12-18T12:09:10;27.27;;;15.63;;
45905;SDS011;31619;49.008;12.106;2022-12-18T12:17:32;25.13;;;15.67;;
45905;SDS011;31619;49.008;12.106;2022-12-18T12:23:15;26.63;;;16.77;;
45905;SDS011;31619;49.008;12.106;2022-12-18T12:25:52;21.77;;;14.63;;
45905;SDS011;31619;49.008;12.106;2022-12-18T12:37:00;26.10;;;15.47;;
45905;SDS011;31619;49.008;12.106;2022-12-18T12:39:46;21.30;;;15.33;;
45905;SDS011;31619;49.008;12.106;2022-12-18T12:42:18;22.43;;;14.60;;
45905;SDS011;31619;49.008;12.106;2022-12-18T12:45:09;21.50;;;15.20;;
45905;SDS011;31619;49.008;12.106;2022-12-18T12:47:43;22.23;;;14.97;;
45905;SDS011;31619;49.008;12.106;2022-12-18T12:50:13;21.60;;;15.40;;
45905;SDS011;31619;49.008;12.106;2022-12-18T12:53:05;23.73;;;15.10;;
45905;SDS011;31619;49.008;12.106;2022-12-18T12:55:30;24.73;;;14.47;;
45905;SDS011;31619;49.008;12.106;2022-12-18T13:00:56;25.20;;;16.27;;
45905;SDS011;31619;49.008;12.106;2022-12-18T13:03:44;23.93;;;14.63;;
45905;SDS011;31619;49.008;12.106;2022-12-18T13:09:13;24.93;;;15.93;;
45905;SDS011;31619;49.008;12.106;2022-12-18T13:11:42;21.47;;;14.63;;
45905;SDS011;31619;49.008;12.106;2022-12-18T13:14:29;22.20;;;13.87;;
45905;SDS011;31619;49.008;12.106;2022-12-18T13:17:21;22.43;;;15.47;;
45905;SDS011;31619;49.008;12.106;2022-12-18T13:19:44;21.60;;;14.13;;
45905;SDS011;31619;49.008;12.106;2022-12-18T13:22:22;22.47;;;14.17;;
45905;SDS011;31619;49.008;12.106;2022-12-18T13:24:53;20.70;;;14.37;;
45905;SDS011;31619;49.008;12.106;2022-12-18T13:38:21;22.80;;;15.33;;
45905;SDS011;31619;49.008;12.106;2022-12-18T13:40:57;19.43;;;14.20;;
45905;SDS011;31619;49.008;12.106;2022-12-18T13:43:23;21.83;;;16.10;;
45905;SDS011;31619;49.008;12.106;2022-12-18T13:46:06;27.17;;;15.57;;
45905;SDS011;31619;49.008;12.106;2022-12-18T13:48:55;30.40;;;17.97;;
45905;SDS011;31619;49.008;12.106;2022-12-18T13:51:23;24.93;;;15.97;;
45905;SDS011;31619;49.008;12.106;2022-12-18T13:53:51;27.80;;;18.07;;
45905;SDS011;31619;49.008;12.106;2022-12-18T13:56:44;26.10;;;16.87;;
45905;SDS011;31619;49.008;12.106;2022-12-18T13:59:44;26.20;;;17.30;;
45905;SDS011;31619;49.008;12.106;2022-12-18T14:02:13;24.40;;;17.53;;
45905;SDS011;31619;49.008;12.106;2022-12-18T14:04:39;25.13;;;16.17;;
45905;SDS011;31619;49.008;12.106;2022-12-18T14:07:10;27.60;;;18.00;;
45905;SDS011;31619;49.008;12.106;2022-12-18T14:09:44;27.90;;;17.23;;
45905;SDS011;31619;49.008;12.106;2022-12-18T14:12:17;23.50;;;16.57;;
45905;SDS011;31619;49.008;12.106;2022-12-18T14:15:29;26.33;;;15.33;;
45905;SDS011;31619;49.008;12.106;2022-12-18T14:18:41;28.10;;;18.07;;
45905;SDS011;31619;49.008;12.106;2022-12-18T14:20:50;22.70;;;16.07;;
45905;SDS011;31619;49.008;12.106;2022-12-18T14:23:28;24.47;;;16.50;;
45905;SDS011;31619;49.008;12.106;2022-12-18T14:25:56;28.50;;;18.37;;
45905;SDS011;31619;49.008;12.106;2022-12-18T14:28:22;26.73;;;17.97;;
45905;SDS011;31619;49.008;12.106;2022-12-18T14:30:48;27.30;;;17.73;;
45905;SDS011;31619;49.008;12.106;2022-12-18T14:33:15;25.57;;;16.43;;
45905;SDS011;31619;49.008;12.106;2022-12-18T14:35:59;24.13;;;16.83;;
45905;SDS011;31619;49.008;12.106;2022-12-18T14:38:33;27.83;;;17.13;;
45905;SDS011;31619;49.008;12.106;2022-12-18T14:41:04;31.60;;;18.93;;
45905;SDS011;31619;49.008;12.106;2022-12-18T14:43:34;22.50;;;16.27;;
45905;SDS011;31619;49.008;12.106;2022-12-18T14:46:01;25.83;;;15.97;;
45905;SDS011;31619;49.008;12.106;2022-12-18T14:48:38;27.30;;;17.37;;
45905;SDS011;31619;49.008;12.106;2022-12-18T14:53:42;31.03;;;17.47;;
45905;SDS011;31619;49.008;12.106;2022-12-18T14:56:16;26.37;;;17.33;;
45905;SDS011;31619;49.008;12.106;2022-12-18T14:58:54;24.50;;;16.47;;
45905;SDS011;31619;49.008;12.106;2022-12-18T15:04:03;26.70;;;16.13;;
45905;SDS011;31619;49.008;12.106;2022-12-18T15:06:32;22.90;;;15.60;;
45905;SDS011;31619;49.008;12.106;2022-12-18T15:09:00;24.53;;;15.27;;
45905;SDS011;31619;49.008;12.106;2022-12-18T15:11:30;28.00;;;16.67;;
45905;SDS011;31619;49.008;12.106;2022-12-18T15:13:59;27.17;;;16.50;;
45905;SDS011;31619;49.008;12.106;2022-12-18T15:16:25;25.93;;;17.50;;
45905;SDS011;31619;49.008;12.106;2022-12-18T15:18:51;26.90;;;15.33;;
45905;SDS011;31619;49.008;12.106;2022-12-18T15:21:18;24.23;;;15.53;;
45905;SDS011;31619;49.008;12.106;2022-12-18T15:23:51;30.23;;;17.03;;
45905;SDS011;31619;49.008;12.106;2022-12-18T15:26:19;28.50;;;16.03;;
45905;SDS011;31619;49.008;12.106;2022-12-18T15:28:47;26.53;;;17.77;;
45905;SDS011;31619;49.008;12.106;2022-12-18T15:33:41;26.23;;;16.60;;
45905;SDS011;31619;49.008;12.106;2022-12-18T15:36:14;28.73;;;18.10;;
45905;SDS011;31619;49.008;12.106;2022-12-18T15:38:41;27.47;;;17.73;;
45905;SDS011;31619;49.008;12.106;2022-12-18T15:41:14;28.93;;;17.70;;
45905;SDS011;31619;49.008;12.106;2022-12-18T15:43:41;27.80;;;17.63;;
45905;SDS011;31619;49.008;12.106;2022-12-18T15:48:51;25.10;;;17.00;;
45905;SDS011;31619;49.008;12.106;2022-12-18T15:51:19;29.13;;;17.63;;
45905;SDS011;31619;49.008;12.106;2022-12-18T15:53:47;30.73;;;17.23;;
45905;SDS011;31619;49.008;12.106;2022-12-18T15:56:15;27.67;;;18.87;;
45905;SDS011;31619;49.008;12.106;2022-12-18T15:58:59;28.17;;;17.67;;
45905;SDS011;31619;49.008;12.106;2022-12-18T16:01:26;30.60;;;17.77;;
45905;SDS011;31619;49.008;12.106;2022-12-18T16:03:53;25.23;;;16.60;;
45905;SDS011;31619;49.008;12.106;2022-12-18T16:06:20;26.03;;;17.07;;
45905;SDS011;31619;49.008;12.106;2022-12-18T16:08:46;30.80;;;18.87;;
45905;SDS011;31619;49.008;12.106;2022-12-18T16:11:16;31.90;;;18.93;;
45905;SDS011;31619;49.008;12.106;2022-12-18T16:14:18;33.67;;;19.13;;
45905;SDS011;31619;49.008;12.106;2022-12-18T16:16:45;35.47;;;20.90;;
45905;SDS011;31619;49.008;12.106;2022-12-18T16:19:12;33.03;;;20.50;;
45905;SDS011;31619;49.008;12.106;2022-12-18T16:21:37;30.33;;;19.77;;